Terminal Aerodrome Forecast
Issued by NWS Kansas City/Pleasant Hill, MO

Home | Current Version | Previous Version | Text Only | Print | Product List | Glossary On
Versions: 1 2 3 4 5 6 7 8 9 10 11 12 13
550
FTUS43 KEAX 030522
TAFMCI
TAF
KMCI 030522Z 0306/0406 04003KT P6SM SCT200
     FM031700 10005KT P6SM OVC100
     FM040000 10005KT P6SM VCSH OVC040
     FM040200 12005KT P6SM VCSH OVC030
     FM040400 13005KT 3SM -SHRA OVC025=

USA.gov is the U.S. government's official web portal to all federal, state and local government web resources and services.